ADDS METAR Data

Data at: 1825 UTC 20 Jul 2018

METAR for:KCQX (Chatham Muni, MA, US)
Text:KCQX 201752Z AUTO 12007KT 10SM CLR 23/12 A3021 RMK AO2 SLP230 T02330122 10250 20228 58001 TSNO
Temperature: 23.3°C ( 74°F)
Dewpoint: 12.2°C ( 54°F) [RH = 50%]
Pressure (altimeter):30.21 inches Hg (1023.1 mb) [Sea level pressure: 1023.0 mb]
Winds:from the ESE (120 degrees) at 8 MPH (7 knots; 3.6 m/s)
Visibility:10 or more sm (16+ km)
Ceiling:at least 12,000 feet AGL
Clouds:sky clear below 12,000 feet AGL
QC Flag:automated observation with no human augmentation